sensor_id;sensor_type;location;lat;lon;timestamp;temperature;humidity
39695;DHT22;25367;-35.352;149.036;2022-12-07T00:01:53;24.00;47.90
39695;DHT22;25367;-35.352;149.036;2022-12-07T00:04:22;24.00;47.90
39695;DHT22;25367;-35.352;149.036;2022-12-07T00:06:53;24.00;47.80
39695;DHT22;25367;-35.352;149.036;2022-12-07T00:09:22;24.00;47.80
39695;DHT22;25367;-35.352;149.036;2022-12-07T00:11:54;24.00;47.70
39695;DHT22;25367;-35.352;149.036;2022-12-07T00:14:23;24.00;47.70
39695;DHT22;25367;-35.352;149.036;2022-12-07T00:16:53;24.00;47.60
39695;DHT22;25367;-35.352;149.036;2022-12-07T00:19:22;24.00;47.50
39695;DHT22;25367;-35.352;149.036;2022-12-07T00:21:51;24.00;47.50
39695;DHT22;25367;-35.352;149.036;2022-12-07T00:24:21;23.90;47.40
39695;DHT22;25367;-35.352;149.036;2022-12-07T00:26:52;24.00;47.30
39695;DHT22;25367;-35.352;149.036;2022-12-07T00:29:22;24.00;47.30
39695;DHT22;25367;-35.352;149.036;2022-12-07T00:31:51;24.00;47.30
39695;DHT22;25367;-35.352;149.036;2022-12-07T00:34:22;24.00;47.30
39695;DHT22;25367;-35.352;149.036;2022-12-07T00:36:51;24.00;47.10
39695;DHT22;25367;-35.352;149.036;2022-12-07T00:39:21;24.00;47.10
39695;DHT22;25367;-35.352;149.036;2022-12-07T00:41:52;24.00;47.10
39695;DHT22;25367;-35.352;149.036;2022-12-07T00:44:22;24.00;47.10
39695;DHT22;25367;-35.352;149.036;2022-12-07T00:46:51;24.00;47.10
39695;DHT22;25367;-35.352;149.036;2022-12-07T00:49:21;24.00;46.90
39695;DHT22;25367;-35.352;149.036;2022-12-07T00:51:50;24.00;46.90
39695;DHT22;25367;-35.352;149.036;2022-12-07T00:54:20;24.00;46.90
39695;DHT22;25367;-35.352;149.036;2022-12-07T00:56:49;24.00;46.80
39695;DHT22;25367;-35.352;149.036;2022-12-07T00:59:21;24.00;46.80
39695;DHT22;25367;-35.352;149.036;2022-12-07T01:01:50;24.00;46.80
39695;DHT22;25367;-35.352;149.036;2022-12-07T01:04:20;24.10;46.80
39695;DHT22;25367;-35.352;149.036;2022-12-07T01:06:49;24.00;46.70
39695;DHT22;25367;-35.352;149.036;2022-12-07T01:09:18;24.00;46.70
39695;DHT22;25367;-35.352;149.036;2022-12-07T01:11:48;24.00;46.60
39695;DHT22;25367;-35.352;149.036;2022-12-07T01:14:19;24.10;46.60
39695;DHT22;25367;-35.352;149.036;2022-12-07T01:16:48;24.10;46.60
39695;DHT22;25367;-35.352;149.036;2022-12-07T01:19:18;24.10;46.60
39695;DHT22;25367;-35.352;149.036;2022-12-07T01:21:47;24.10;46.60
39695;DHT22;25367;-35.352;149.036;2022-12-07T01:24:17;24.10;46.50
39695;DHT22;25367;-35.352;149.036;2022-12-07T01:26:49;24.10;46.40
39695;DHT22;25367;-35.352;149.036;2022-12-07T01:29:21;24.10;46.30
39695;DHT22;25367;-35.352;149.036;2022-12-07T01:31:51;24.10;46.30
39695;DHT22;25367;-35.352;149.036;2022-12-07T01:34:20;24.10;46.20
39695;DHT22;25367;-35.352;149.036;2022-12-07T01:36:49;24.10;46.20
39695;DHT22;25367;-35.352;149.036;2022-12-07T01:39:19;24.10;46.20
39695;DHT22;25367;-35.352;149.036;2022-12-07T01:41:49;24.10;46.00
39695;DHT22;25367;-35.352;149.036;2022-12-07T01:44:22;24.20;46.00
39695;DHT22;25367;-35.352;149.036;2022-12-07T01:46:52;24.20;46.10
39695;DHT22;25367;-35.352;149.036;2022-12-07T01:49:31;24.20;46.00
39695;DHT22;25367;-35.352;149.036;2022-12-07T01:52:10;24.20;46.20
39695;DHT22;25367;-35.352;149.036;2022-12-07T01:54:43;24.20;46.10
39695;DHT22;25367;-35.352;149.036;2022-12-07T01:57:13;24.20;45.80
39695;DHT22;25367;-35.352;149.036;2022-12-07T01:59:48;24.20;45.80
39695;DHT22;25367;-35.352;149.036;2022-12-07T02:02:21;24.20;45.80
39695;DHT22;25367;-35.352;149.036;2022-12-07T02:04:52;24.20;46.20
39695;DHT22;25367;-35.352;149.036;2022-12-07T02:07:23;24.30;45.60
39695;DHT22;25367;-35.352;149.036;2022-12-07T02:09:52;24.20;46.20
39695;DHT22;25367;-35.352;149.036;2022-12-07T02:12:23;24.30;45.60
39695;DHT22;25367;-35.352;149.036;2022-12-07T02:14:56;24.30;45.60
39695;DHT22;25367;-35.352;149.036;2022-12-07T02:17:31;24.30;45.70
39695;DHT22;25367;-35.352;149.036;2022-12-07T02:20:26;24.30;45.80
39695;DHT22;25367;-35.352;149.036;2022-12-07T02:26:45;24.40;46.10
39695;DHT22;25367;-35.352;149.036;2022-12-07T02:29:23;24.40;46.10
39695;DHT22;25367;-35.352;149.036;2022-12-07T02:31:59;24.40;45.90
39695;DHT22;25367;-35.352;149.036;2022-12-07T02:34:38;24.40;45.80
39695;DHT22;25367;-35.352;149.036;2022-12-07T02:37:17;24.40;45.80
39695;DHT22;25367;-35.352;149.036;2022-12-07T02:39:52;24.40;45.70
39695;DHT22;25367;-35.352;149.036;2022-12-07T02:42:26;24.50;45.80
39695;DHT22;25367;-35.352;149.036;2022-12-07T02:45:01;24.50;45.80
39695;DHT22;25367;-35.352;149.036;2022-12-07T02:47:33;24.50;45.80
39695;DHT22;25367;-35.352;149.036;2022-12-07T02:50:05;24.50;45.80
39695;DHT22;25367;-35.352;149.036;2022-12-07T02:52:35;24.50;45.80
39695;DHT22;25367;-35.352;149.036;2022-12-07T02:55:05;24.60;45.90
39695;DHT22;25367;-35.352;149.036;2022-12-07T02:57:53;24.60;45.80
39695;DHT22;25367;-35.352;149.036;2022-12-07T03:00:25;24.60;46.00
39695;DHT22;25367;-35.352;149.036;2022-12-07T03:02:58;24.60;45.80
39695;DHT22;25367;-35.352;149.036;2022-12-07T03:05:46;24.60;45.80
39695;DHT22;25367;-35.352;149.036;2022-12-07T03:08:24;24.70;45.90
39695;DHT22;25367;-35.352;149.036;2022-12-07T03:11:00;24.60;45.80
39695;DHT22;25367;-35.352;149.036;2022-12-07T03:13:34;24.60;45.90
39695;DHT22;25367;-35.352;149.036;2022-12-07T03:16:11;24.60;46.10
39695;DHT22;25367;-35.352;149.036;2022-12-07T03:18:47;24.70;46.30
39695;DHT22;25367;-35.352;149.036;2022-12-07T03:21:20;24.70;46.10
39695;DHT22;25367;-35.352;149.036;2022-12-07T03:23:54;24.70;46.00
39695;DHT22;25367;-35.352;149.036;2022-12-07T03:26:28;24.70;45.90
39695;DHT22;25367;-35.352;149.036;2022-12-07T03:29:05;24.70;46.20
39695;DHT22;25367;-35.352;149.036;2022-12-07T03:31:40;24.80;45.90
39695;DHT22;25367;-35.352;149.036;2022-12-07T03:34:14;24.80;45.90
39695;DHT22;25367;-35.352;149.036;2022-12-07T03:36:48;24.80;46.00
39695;DHT22;25367;-35.352;149.036;2022-12-07T03:39:26;24.80;45.80
39695;DHT22;25367;-35.352;149.036;2022-12-07T03:41:58;24.90;45.70
39695;DHT22;25367;-35.352;149.036;2022-12-07T03:44:29;24.90;45.80
39695;DHT22;25367;-35.352;149.036;2022-12-07T03:47:04;24.90;45.70
39695;DHT22;25367;-35.352;149.036;2022-12-07T03:49:40;24.90;45.80
39695;DHT22;25367;-35.352;149.036;2022-12-07T03:52:16;24.90;45.70
39695;DHT22;25367;-35.352;149.036;2022-12-07T03:54:51;24.90;45.70
39695;DHT22;25367;-35.352;149.036;2022-12-07T03:57:24;24.90;45.70
39695;DHT22;25367;-35.352;149.036;2022-12-07T03:59:56;24.90;45.60
39695;DHT22;25367;-35.352;149.036;2022-12-07T04:02:29;25.00;45.70
39695;DHT22;25367;-35.352;149.036;2022-12-07T04:04:59;25.00;45.60
39695;DHT22;25367;-35.352;149.036;2022-12-07T04:07:29;25.00;45.60
39695;DHT22;25367;-35.352;149.036;2022-12-07T04:09:58;24.90;45.50
39695;DHT22;25367;-35.352;149.036;2022-12-07T04:12:28;25.00;45.40
39695;DHT22;25367;-35.352;149.036;2022-12-07T04:14:57;25.00;45.40
39695;DHT22;25367;-35.352;149.036;2022-12-07T04:17:28;25.00;45.30
39695;DHT22;25367;-35.352;149.036;2022-12-07T04:19:58;25.00;45.30
39695;DHT22;25367;-35.352;149.036;2022-12-07T04:22:27;25.00;45.20
39695;DHT22;25367;-35.352;149.036;2022-12-07T04:24:57;25.00;45.30
39695;DHT22;25367;-35.352;149.036;2022-12-07T04:27:26;25.10;45.30
39695;DHT22;25367;-35.352;149.036;2022-12-07T04:29:56;25.00;45.30
39695;DHT22;25367;-35.352;149.036;2022-12-07T04:32:28;25.10;45.30
39695;DHT22;25367;-35.352;149.036;2022-12-07T04:34:58;25.10;45.30
39695;DHT22;25367;-35.352;149.036;2022-12-07T04:37:27;25.10;45.30
39695;DHT22;25367;-35.352;149.036;2022-12-07T04:39:56;25.10;45.20
39695;DHT22;25367;-35.352;149.036;2022-12-07T04:42:26;25.10;45.10
39695;DHT22;25367;-35.352;149.036;2022-12-07T04:44:55;25.10;45.10
39695;DHT22;25367;-35.352;149.036;2022-12-07T04:47:26;25.20;45.30
39695;DHT22;25367;-35.352;149.036;2022-12-07T04:49:56;25.20;45.20
39695;DHT22;25367;-35.352;149.036;2022-12-07T04:52:26;25.20;45.20
39695;DHT22;25367;-35.352;149.036;2022-12-07T04:54:55;25.20;45.20
39695;DHT22;25367;-35.352;149.036;2022-12-07T04:57:24;25.20;45.20
39695;DHT22;25367;-35.352;149.036;2022-12-07T04:59:54;25.20;45.20
39695;DHT22;25367;-35.352;149.036;2022-12-07T05:02:23;25.20;45.10
39695;DHT22;25367;-35.352;149.036;2022-12-07T05:04:55;25.20;45.10
39695;DHT22;25367;-35.352;149.036;2022-12-07T05:07:24;25.20;45.00
39695;DHT22;25367;-35.352;149.036;2022-12-07T05:09:54;25.20;45.00
39695;DHT22;25367;-35.352;149.036;2022-12-07T05:12:23;25.20;44.90
39695;DHT22;25367;-35.352;149.036;2022-12-07T05:14:52;25.20;44.90
39695;DHT22;25367;-35.352;149.036;2022-12-07T05:17:22;25.20;44.90
39695;DHT22;25367;-35.352;149.036;2022-12-07T05:19:53;25.20;44.90
39695;DHT22;25367;-35.352;149.036;2022-12-07T05:22:23;25.30;45.00
39695;DHT22;25367;-35.352;149.036;2022-12-07T05:24:52;25.30;44.80
39695;DHT22;25367;-35.352;149.036;2022-12-07T05:27:22;25.30;44.90
39695;DHT22;25367;-35.352;149.036;2022-12-07T05:29:51;25.30;44.80
39695;DHT22;25367;-35.352;149.036;2022-12-07T05:32:21;25.30;44.80
39695;DHT22;25367;-35.352;149.036;2022-12-07T05:34:50;25.30;44.80
39695;DHT22;25367;-35.352;149.036;2022-12-07T05:37:22;25.30;44.80
39695;DHT22;25367;-35.352;149.036;2022-12-07T05:39:51;25.30;44.80
39695;DHT22;25367;-35.352;149.036;2022-12-07T05:42:20;25.30;44.80
39695;DHT22;25367;-35.352;149.036;2022-12-07T05:44:50;25.30;44.80
39695;DHT22;25367;-35.352;149.036;2022-12-07T05:47:19;25.30;44.80
39695;DHT22;25367;-35.352;149.036;2022-12-07T05:49:49;25.30;44.90
39695;DHT22;25367;-35.352;149.036;2022-12-07T05:52:21;25.30;45.00
39695;DHT22;25367;-35.352;149.036;2022-12-07T05:54:50;25.30;45.00
39695;DHT22;25367;-35.352;149.036;2022-12-07T05:57:20;25.40;45.00
39695;DHT22;25367;-35.352;149.036;2022-12-07T05:59:49;25.40;45.00
39695;DHT22;25367;-35.352;149.036;2022-12-07T06:02:19;25.40;45.00
39695;DHT22;25367;-35.352;149.036;2022-12-07T06:04:48;25.40;45.00
39695;DHT22;25367;-35.352;149.036;2022-12-07T06:07:18;25.40;45.00
39695;DHT22;25367;-35.352;149.036;2022-12-07T06:09:49;25.40;45.00
39695;DHT22;25367;-35.352;149.036;2022-12-07T06:12:18;25.50;45.10
39695;DHT22;25367;-35.352;149.036;2022-12-07T06:14:48;25.50;45.10
39695;DHT22;25367;-35.352;149.036;2022-12-07T06:17:18;25.50;45.10
39695;DHT22;25367;-35.352;149.036;2022-12-07T06:19:47;25.60;45.20
39695;DHT22;25367;-35.352;149.036;2022-12-07T06:22:16;25.60;45.20
39695;DHT22;25367;-35.352;149.036;2022-12-07T06:24:49;25.50;45.10
39695;DHT22;25367;-35.352;149.036;2022-12-07T06:27:18;25.60;45.20
39695;DHT22;25367;-35.352;149.036;2022-12-07T06:29:48;25.60;45.20
39695;DHT22;25367;-35.352;149.036;2022-12-07T06:32:17;25.60;45.20
39695;DHT22;25367;-35.352;149.036;2022-12-07T06:34:46;25.60;45.20
39695;DHT22;25367;-35.352;149.036;2022-12-07T06:37:16;25.60;45.20
39695;DHT22;25367;-35.352;149.036;2022-12-07T06:39:47;25.60;45.20
39695;DHT22;25367;-35.352;149.036;2022-12-07T06:42:18;25.60;45.20
39695;DHT22;25367;-35.352;149.036;2022-12-07T06:44:48;25.60;45.20
39695;DHT22;25367;-35.352;149.036;2022-12-07T06:47:18;25.70;45.20
39695;DHT22;25367;-35.352;149.036;2022-12-07T06:49:48;25.70;45.20
39695;DHT22;25367;-35.352;149.036;2022-12-07T06:52:18;25.70;45.40
39695;DHT22;25367;-35.352;149.036;2022-12-07T06:54:50;25.70;45.20
39695;DHT22;25367;-35.352;149.036;2022-12-07T06:57:19;25.80;45.50
39695;DHT22;25367;-35.352;149.036;2022-12-07T06:59:49;25.70;45.20
39695;DHT22;25367;-35.352;149.036;2022-12-07T07:02:19;25.80;45.40
39695;DHT22;25367;-35.352;149.036;2022-12-07T07:04:48;25.80;45.30
39695;DHT22;25367;-35.352;149.036;2022-12-07T07:07:21;25.90;45.40
39695;DHT22;25367;-35.352;149.036;2022-12-07T07:09:55;25.90;45.40
39695;DHT22;25367;-35.352;149.036;2022-12-07T07:12:25;25.90;45.30
39695;DHT22;25367;-35.352;149.036;2022-12-07T07:14:56;25.90;45.20
39695;DHT22;25367;-35.352;149.036;2022-12-07T07:17:27;25.90;45.10
39695;DHT22;25367;-35.352;149.036;2022-12-07T07:19:56;26.00;45.40
39695;DHT22;25367;-35.352;149.036;2022-12-07T07:22:26;26.00;45.30
39695;DHT22;25367;-35.352;149.036;2022-12-07T07:25:00;26.10;45.20
39695;DHT22;25367;-35.352;149.036;2022-12-07T07:27:30;26.10;45.10
39695;DHT22;25367;-35.352;149.036;2022-12-07T07:30:00;26.10;44.90
39695;DHT22;25367;-35.352;149.036;2022-12-07T07:32:30;26.10;44.90
39695;DHT22;25367;-35.352;149.036;2022-12-07T07:34:59;26.10;44.90
39695;DHT22;25367;-35.352;149.036;2022-12-07T07:37:29;26.10;44.90
39695;DHT22;25367;-35.352;149.036;2022-12-07T07:40:01;26.20;44.80
39695;DHT22;25367;-35.352;149.036;2022-12-07T07:42:31;26.20;44.80
39695;DHT22;25367;-35.352;149.036;2022-12-07T07:45:03;26.30;44.70
39695;DHT22;25367;-35.352;149.036;2022-12-07T07:47:35;26.30;44.80
39695;DHT22;25367;-35.352;149.036;2022-12-07T07:50:09;26.30;44.70
39695;DHT22;25367;-35.352;149.036;2022-12-07T07:52:39;26.30;44.70
39695;DHT22;25367;-35.352;149.036;2022-12-07T07:55:12;26.30;44.60
39695;DHT22;25367;-35.352;149.036;2022-12-07T07:57:42;26.40;44.60
39695;DHT22;25367;-35.352;149.036;2022-12-07T08:00:14;26.30;44.60
39695;DHT22;25367;-35.352;149.036;2022-12-07T08:02:44;26.40;44.60
39695;DHT22;25367;-35.352;149.036;2022-12-07T08:05:16;26.40;44.60
39695;DHT22;25367;-35.352;149.036;2022-12-07T08:07:46;26.40;44.50
39695;DHT22;25367;-35.352;149.036;2022-12-07T08:10:21;26.30;44.40
39695;DHT22;25367;-35.352;149.036;2022-12-07T08:12:51;26.40;44.50
39695;DHT22;25367;-35.352;149.036;2022-12-07T08:15:21;26.30;44.40
39695;DHT22;25367;-35.352;149.036;2022-12-07T08:17:50;26.30;44.40
39695;DHT22;25367;-35.352;149.036;2022-12-07T08:20:21;26.30;44.60
39695;DHT22;25367;-35.352;149.036;2022-12-07T08:22:51;26.30;44.40
39695;DHT22;25367;-35.352;149.036;2022-12-07T08:25:25;26.30;44.60
39695;DHT22;25367;-35.352;149.036;2022-12-07T08:27:56;26.30;44.50
39695;DHT22;25367;-35.352;149.036;2022-12-07T08:30:26;26.30;44.50
39695;DHT22;25367;-35.352;149.036;2022-12-07T08:32:56;26.30;44.60
39695;DHT22;25367;-35.352;149.036;2022-12-07T08:35:25;26.30;44.60
39695;DHT22;25367;-35.352;149.036;2022-12-07T08:37:55;26.20;44.70
39695;DHT22;25367;-35.352;149.036;2022-12-07T08:40:27;26.20;44.70
39695;DHT22;25367;-35.352;149.036;2022-12-07T08:42:59;26.20;44.60
39695;DHT22;25367;-35.352;149.036;2022-12-07T08:45:31;26.20;44.70
39695;DHT22;25367;-35.352;149.036;2022-12-07T08:48:03;26.10;44.70
39695;DHT22;25367;-35.352;149.036;2022-12-07T08:50:36;26.20;44.60
39695;DHT22;25367;-35.352;149.036;2022-12-07T08:53:07;26.10;44.60
39695;DHT22;25367;-35.352;149.036;2022-12-07T08:55:41;26.10;44.60
39695;DHT22;25367;-35.352;149.036;2022-12-07T08:58:25;26.10;44.50
39695;DHT22;25367;-35.352;149.036;2022-12-07T09:00:55;26.10;44.60
39695;DHT22;25367;-35.352;149.036;2022-12-07T09:03:26;26.10;44.40
39695;DHT22;25367;-35.352;149.036;2022-12-07T09:05:56;26.10;44.40
39695;DHT22;25367;-35.352;149.036;2022-12-07T09:08:29;26.10;44.20
39695;DHT22;25367;-35.352;149.036;2022-12-07T09:11:03;26.10;44.30
39695;DHT22;25367;-35.352;149.036;2022-12-07T09:13:33;26.00;44.20
39695;DHT22;25367;-35.352;149.036;2022-12-07T09:16:07;26.00;44.30
39695;DHT22;25367;-35.352;149.036;2022-12-07T09:18:38;26.00;44.30
39695;DHT22;25367;-35.352;149.036;2022-12-07T09:21:14;26.00;44.10
39695;DHT22;25367;-35.352;149.036;2022-12-07T09:23:52;26.00;43.90
39695;DHT22;25367;-35.352;149.036;2022-12-07T09:26:24;26.00;44.00
39695;DHT22;25367;-35.352;149.036;2022-12-07T09:28:55;25.90;43.80
39695;DHT22;25367;-35.352;149.036;2022-12-07T09:31:25;25.90;44.30
39695;DHT22;25367;-35.352;149.036;2022-12-07T09:33:56;25.90;43.70
39695;DHT22;25367;-35.352;149.036;2022-12-07T09:36:27;25.90;43.80
39695;DHT22;25367;-35.352;149.036;2022-12-07T09:38:58;25.90;43.80
39695;DHT22;25367;-35.352;149.036;2022-12-07T09:41:31;25.90;44.20
39695;DHT22;25367;-35.352;149.036;2022-12-07T09:44:02;25.90;43.90
39695;DHT22;25367;-35.352;149.036;2022-12-07T09:46:36;25.80;44.50
39695;DHT22;25367;-35.352;149.036;2022-12-07T09:49:08;25.80;44.20
39695;DHT22;25367;-35.352;149.036;2022-12-07T09:51:40;25.80;44.10
39695;DHT22;25367;-35.352;149.036;2022-12-07T09:54:13;25.80;44.10
39695;DHT22;25367;-35.352;149.036;2022-12-07T09:56:46;25.90;44.10
39695;DHT22;25367;-35.352;149.036;2022-12-07T09:59:17;25.80;44.10
39695;DHT22;25367;-35.352;149.036;2022-12-07T10:01:49;25.80;44.10
39695;DHT22;25367;-35.352;149.036;2022-12-07T10:04:20;25.80;44.10
39695;DHT22;25367;-35.352;149.036;2022-12-07T10:06:50;25.80;44.10
39695;DHT22;25367;-35.352;149.036;2022-12-07T10:09:20;25.80;44.10
39695;DHT22;25367;-35.352;149.036;2022-12-07T10:12:03;25.80;44.20
39695;DHT22;25367;-35.352;149.036;2022-12-07T10:14:34;25.80;44.30
39695;DHT22;25367;-35.352;149.036;2022-12-07T10:17:31;25.80;44.30
39695;DHT22;25367;-35.352;149.036;2022-12-07T10:20:15;25.80;44.50
39695;DHT22;25367;-35.352;149.036;2022-12-07T10:23:02;25.80;44.60
39695;DHT22;25367;-35.352;149.036;2022-12-07T10:25:33;25.80;44.60
39695;DHT22;25367;-35.352;149.036;2022-12-07T10:28:15;25.80;44.50
39695;DHT22;25367;-35.352;149.036;2022-12-07T10:31:03;25.80;44.60
39695;DHT22;25367;-35.352;149.036;2022-12-07T10:33:50;25.80;44.70
39695;DHT22;25367;-35.352;149.036;2022-12-07T10:36:22;25.80;44.70
39695;DHT22;25367;-35.352;149.036;2022-12-07T10:38:53;25.80;44.70
39695;DHT22;25367;-35.352;149.036;2022-12-07T10:41:27;25.70;44.70
39695;DHT22;25367;-35.352;149.036;2022-12-07T10:44:00;25.80;44.70
39695;DHT22;25367;-35.352;149.036;2022-12-07T10:47:04;25.80;44.70
39695;DHT22;25367;-35.352;149.036;2022-12-07T10:50:01;25.80;44.80
39695;DHT22;25367;-35.352;149.036;2022-12-07T10:55:47;25.80;44.90
39695;DHT22;25367;-35.352;149.036;2022-12-07T10:58:41;25.70;44.90
39695;DHT22;25367;-35.352;149.036;2022-12-07T11:01:24;25.80;44.90
39695;DHT22;25367;-35.352;149.036;2022-12-07T11:04:13;25.70;45.00
39695;DHT22;25367;-35.352;149.036;2022-12-07T11:06:48;25.70;45.00
39695;DHT22;25367;-35.352;149.036;2022-12-07T11:09:41;25.80;45.00
39695;DHT22;25367;-35.352;149.036;2022-12-07T11:12:20;25.80;45.00
39695;DHT22;25367;-35.352;149.036;2022-12-07T11:14:55;25.80;45.10
39695;DHT22;25367;-35.352;149.036;2022-12-07T11:17:35;25.70;45.20
39695;DHT22;25367;-35.352;149.036;2022-12-07T11:20:18;25.70;45.30
39695;DHT22;25367;-35.352;149.036;2022-12-07T11:22:56;25.70;45.20
39695;DHT22;25367;-35.352;149.036;2022-12-07T11:25:34;25.70;45.20
39695;DHT22;25367;-35.352;149.036;2022-12-07T11:28:21;25.70;45.20
39695;DHT22;25367;-35.352;149.036;2022-12-07T11:31:00;25.70;45.20
39695;DHT22;25367;-35.352;149.036;2022-12-07T11:33:37;25.80;45.30
39695;DHT22;25367;-35.352;149.036;2022-12-07T11:36:17;25.70;45.20
39695;DHT22;25367;-35.352;149.036;2022-12-07T11:38:52;25.70;45.20
39695;DHT22;25367;-35.352;149.036;2022-12-07T11:41:27;25.70;45.40
39695;DHT22;25367;-35.352;149.036;2022-12-07T11:44:00;25.70;45.40
39695;DHT22;25367;-35.352;149.036;2022-12-07T11:46:43;25.70;45.40
39695;DHT22;25367;-35.352;149.036;2022-12-07T11:49:21;25.70;45.50
39695;DHT22;25367;-35.352;149.036;2022-12-07T11:51:57;25.70;45.50
39695;DHT22;25367;-35.352;149.036;2022-12-07T11:54:32;25.60;45.50
39695;DHT22;25367;-35.352;149.036;2022-12-07T11:57:12;25.60;45.50
39695;DHT22;25367;-35.352;149.036;2022-12-07T11:59:50;25.60;45.60
39695;DHT22;25367;-35.352;149.036;2022-12-07T12:02:24;25.60;45.60
39695;DHT22;25367;-35.352;149.036;2022-12-07T12:05:02;25.60;45.60
39695;DHT22;25367;-35.352;149.036;2022-12-07T12:07:35;25.60;45.70
39695;DHT22;25367;-35.352;149.036;2022-12-07T12:10:13;25.50;45.60
39695;DHT22;25367;-35.352;149.036;2022-12-07T12:13:02;25.50;45.70
39695;DHT22;25367;-35.352;149.036;2022-12-07T12:15:48;25.50;45.60
39695;DHT22;25367;-35.352;149.036;2022-12-07T12:18:43;25.50;45.80
39695;DHT22;25367;-35.352;149.036;2022-12-07T12:21:19;25.40;45.70
39695;DHT22;25367;-35.352;149.036;2022-12-07T12:23:51;25.40;45.90
39695;DHT22;25367;-35.352;149.036;2022-12-07T12:26:26;25.40;45.90
39695;DHT22;25367;-35.352;149.036;2022-12-07T12:28:58;25.40;45.90
39695;DHT22;25367;-35.352;149.036;2022-12-07T12:31:37;25.40;45.90
39695;DHT22;25367;-35.352;149.036;2022-12-07T12:34:30;25.40;46.00
39695;DHT22;25367;-35.352;149.036;2022-12-07T12:40:39;25.40;46.00
39695;DHT22;25367;-35.352;149.036;2022-12-07T12:49:34;25.30;46.00
39695;DHT22;25367;-35.352;149.036;2022-12-07T12:55:20;25.20;45.90
39695;DHT22;25367;-35.352;149.036;2022-12-07T13:03:56;25.20;46.60
39695;DHT22;25367;-35.352;149.036;2022-12-07T13:06:36;25.10;46.10
39695;DHT22;25367;-35.352;149.036;2022-12-07T13:09:15;25.10;46.00
39695;DHT22;25367;-35.352;149.036;2022-12-07T13:11:49;25.10;46.10
39695;DHT22;25367;-35.352;149.036;2022-12-07T13:14:55;25.10;46.10
39695;DHT22;25367;-35.352;149.036;2022-12-07T13:20:54;25.10;46.00
39695;DHT22;25367;-35.352;149.036;2022-12-07T13:23:30;25.00;46.00
39695;DHT22;25367;-35.352;149.036;2022-12-07T13:26:16;25.00;46.20
39695;DHT22;25367;-35.352;149.036;2022-12-07T13:28:50;25.00;46.20
39695;DHT22;25367;-35.352;149.036;2022-12-07T13:31:33;25.00;46.20
39695;DHT22;25367;-35.352;149.036;2022-12-07T13:34:04;25.00;46.10
39695;DHT22;25367;-35.352;149.036;2022-12-07T13:36:37;25.00;46.20
39695;DHT22;25367;-35.352;149.036;2022-12-07T13:39:18;25.00;46.20
39695;DHT22;25367;-35.352;149.036;2022-12-07T13:41:51;25.00;46.20
39695;DHT22;25367;-35.352;149.036;2022-12-07T13:44:23;25.00;46.30
39695;DHT22;25367;-35.352;149.036;2022-12-07T13:47:03;24.90;46.30
39695;DHT22;25367;-35.352;149.036;2022-12-07T13:49:39;24.90;46.20
39695;DHT22;25367;-35.352;149.036;2022-12-07T13:52:17;24.90;46.30
39695;DHT22;25367;-35.352;149.036;2022-12-07T13:54:47;24.90;46.30
39695;DHT22;25367;-35.352;149.036;2022-12-07T13:57:17;24.90;46.40
39695;DHT22;25367;-35.352;149.036;2022-12-07T13:59:48;24.80;46.30
39695;DHT22;25367;-35.352;149.036;2022-12-07T14:02:20;24.90;46.40
39695;DHT22;25367;-35.352;149.036;2022-12-07T14:04:50;24.80;46.30
39695;DHT22;25367;-35.352;149.036;2022-12-07T14:07:23;24.80;46.40
39695;DHT22;25367;-35.352;149.036;2022-12-07T14:09:56;24.80;46.40
39695;DHT22;25367;-35.352;149.036;2022-12-07T14:12:27;24.70;46.20
39695;DHT22;25367;-35.352;149.036;2022-12-07T14:15:00;24.70;46.70
39695;DHT22;25367;-35.352;149.036;2022-12-07T14:17:28;24.70;46.50
39695;DHT22;25367;-35.352;149.036;2022-12-07T14:19:58;24.70;46.40
39695;DHT22;25367;-35.352;149.036;2022-12-07T14:22:32;24.60;46.70
39695;DHT22;25367;-35.352;149.036;2022-12-07T14:25:26;24.70;46.60
39695;DHT22;25367;-35.352;149.036;2022-12-07T14:27:58;24.70;46.40
39695;DHT22;25367;-35.352;149.036;2022-12-07T14:30:30;24.60;46.60
39695;DHT22;25367;-35.352;149.036;2022-12-07T14:33:02;24.60;46.60
39695;DHT22;25367;-35.352;149.036;2022-12-07T14:35:32;24.60;47.20
39695;DHT22;25367;-35.352;149.036;2022-12-07T14:38:01;24.60;46.60
39695;DHT22;25367;-35.352;149.036;2022-12-07T14:40:31;24.60;46.70
39695;DHT22;25367;-35.352;149.036;2022-12-07T14:43:03;24.60;46.70
39695;DHT22;25367;-35.352;149.036;2022-12-07T14:45:35;24.60;46.70
39695;DHT22;25367;-35.352;149.036;2022-12-07T14:48:05;24.60;46.70
39695;DHT22;25367;-35.352;149.036;2022-12-07T14:50:37;24.60;46.70
39695;DHT22;25367;-35.352;149.036;2022-12-07T14:53:11;24.50;46.70
39695;DHT22;25367;-35.352;149.036;2022-12-07T14:55:41;24.50;46.70
39695;DHT22;25367;-35.352;149.036;2022-12-07T14:58:15;24.50;46.80
39695;DHT22;25367;-35.352;149.036;2022-12-07T15:00:48;24.50;46.80
39695;DHT22;25367;-35.352;149.036;2022-12-07T15:03:17;24.50;46.80
39695;DHT22;25367;-35.352;149.036;2022-12-07T15:05:47;24.50;46.80
39695;DHT22;25367;-35.352;149.036;2022-12-07T15:08:17;24.40;46.80
39695;DHT22;25367;-35.352;149.036;2022-12-07T15:10:46;24.50;46.80
39695;DHT22;25367;-35.352;149.036;2022-12-07T15:13:16;24.40;46.90
39695;DHT22;25367;-35.352;149.036;2022-12-07T15:15:49;24.40;46.90
39695;DHT22;25367;-35.352;149.036;2022-12-07T15:18:19;24.40;46.90
39695;DHT22;25367;-35.352;149.036;2022-12-07T15:20:50;24.40;46.90
39695;DHT22;25367;-35.352;149.036;2022-12-07T15:23:19;24.40;46.90
39695;DHT22;25367;-35.352;149.036;2022-12-07T15:25:49;24.30;46.90
39695;DHT22;25367;-35.352;149.036;2022-12-07T15:28:19;24.30;46.90
39695;DHT22;25367;-35.352;149.036;2022-12-07T15:30:52;24.30;46.90
39695;DHT22;25367;-35.352;149.036;2022-12-07T15:33:22;24.30;47.00
39695;DHT22;25367;-35.352;149.036;2022-12-07T15:35:51;24.30;47.60
39695;DHT22;25367;-35.352;149.036;2022-12-07T15:38:20;24.30;47.00
39695;DHT22;25367;-35.352;149.036;2022-12-07T15:40:50;24.30;47.00
39695;DHT22;25367;-35.352;149.036;2022-12-07T15:43:19;24.20;47.00
39695;DHT22;25367;-35.352;149.036;2022-12-07T15:45:53;24.30;47.10
39695;DHT22;25367;-35.352;149.036;2022-12-07T15:48:22;24.20;47.00
39695;DHT22;25367;-35.352;149.036;2022-12-07T15:50:52;24.20;47.10
39695;DHT22;25367;-35.352;149.036;2022-12-07T15:53:21;24.20;47.10